EDT,Max TemperatureF,Mean TemperatureF,Min TemperatureF,Max Dew PointF,MeanDew PointF,Min DewpointF,Max Humidity, Mean Humidity, Min Humidity, Max Sea Level PressureIn, Mean Sea Level PressureIn, Min Sea Level PressureIn, Max VisibilityMiles, Mean VisibilityMiles, Min VisibilityMiles, Max Wind SpeedMPH, Mean Wind SpeedMPH, Max Gust SpeedMPH,PrecipitationIn, CloudCover, Events, WindDirDegrees
2012-10-1,68,52,39,51,44,39,97,78,48,29.96,29.91,29.82,10,7,1,9,2,,0.02,1,Rain,61
2012-10-2,64,58,53,61,56,50,100,90,80,29.90,29.84,29.79,10,7,2,12,5,16,0.26,8,Rain,49
2012-10-3,64,62,59,61,57,52,100,85,70,30.09,30.00,29.90,10,7,2,14,3,20,0.10,8,Rain,199
2012-10-4,77,66,55,55,52,49,81,63,37,30.15,30.09,30.04,10,10,10,16,8,24,0.00,2,,208
2012-10-5,66,55,44,57,48,42,93,84,66,30.12,30.07,30.03,10,9,2,9,5,17,0.45,7,Rain,243
2012-10-6,52,44,37,41,35,32,93,71,48,30.17,30.09,30.02,10,10,10,13,5,20,0.00,5,,256
2012-10-7,53,46,41,38,36,31,89,71,46,30.19,30.15,30.11,10,10,10,8,2,17,0.00,8,Rain,244
2012-10-8,54,44,33,37,31,26,93,64,34,30.25,30.20,30.13,10,10,10,13,3,17,0.00,2,,192
2012-10-9,62,50,37,39,35,30,86,59,35,30.15,30.03,29.89,10,10,9,18,7,26,0.00,0,,197
2012-10-10,52,44,36,45,37,26,93,70,44,30.22,30.00,29.85,10,10,10,13,8,24,0.02,5,Rain,266
2012-10-11,61,46,30,35,30,27,89,60,30,30.26,30.20,30.10,10,10,10,17,5,29,0.00,0,,219
2012-10-12,55,46,37,37,30,21,74,57,28,30.45,30.36,30.19,10,10,10,13,8,18,0.00,3,,33
2012-10-13,64,50,37,60,42,30,90,71,51,30.39,30.16,29.94,10,9,3,13,5,22,0.11,4,Rain,167
2012-10-14,73,64,54,62,58,48,90,76,51,29.91,29.71,29.52,10,9,4,24,15,39,0.06,5,Rain,204
2012-10-15,54,50,43,48,45,37,94,83,66,29.98,29.84,29.69,10,8,2,10,7,21,0.05,8,Rain,277
2012-10-16,62,46,30,41,35,30,100,80,41,30.02,29.94,29.76,10,6,0,13,2,17,0.00,1,Fog,178
2012-10-17,75,66,57,56,48,41,86,59,37,29.74,29.66,29.51,10,10,7,21,13,30,0.27,5,Rain,179
2012-10-18,64,56,48,54,44,33,94,64,36,29.66,29.52,29.38,10,10,4,21,12,36,0.23,5,Rain-Thunderstorm,197
2012-10-19,54,50,45,45,42,37,93,82,61,29.62,29.59,29.56,10,10,7,13,5,17,0.16,7,Rain,186
2012-10-20,55,50,46,45,43,40,93,80,57,29.95,29.75,29.62,10,10,7,10,7,18,0.01,8,Rain,233
2012-10-21,62,50,37,45,42,36,96,73,50,30.14,30.08,29.96,10,10,5,12,3,,0.00,1,,207
2012-10-22,72,58,44,58,51,42,93,75,51,30.09,30.04,29.96,10,9,4,10,2,17,0.00,2,Rain,189
2012-10-23,66,62,57,59,57,54,97,81,68,30.03,29.98,29.93,10,10,8,12,6,,0.00,4,Rain,217
2012-10-24,78,68,60,59,56,53,90,69,54,30.04,30.01,29.97,10,10,9,14,6,20,0.00,3,,195
2012-10-25,77,67,57,57,53,51,81,62,43,30.00,29.94,29.87,10,10,10,21,9,28,0.00,1,,186
2012-10-26,68,56,45,53,41,34,87,72,59,30.23,30.13,29.87,10,10,10,20,12,26,0.01,6,Rain,336
2012-10-27,55,46,37,35,32,29,79,59,38,30.23,30.19,30.13,10,10,10,16,10,23,0.00,2,,2
2012-10-28,50,42,37,34,30,27,76,61,46,30.20,30.16,30.11,10,10,10,20,11,26,0.00,4,,8
2012-10-29,45,42,39,29,25,19,62,52,36,30.12,30.01,29.77,10,10,10,26,16,38,0.00,4,,346
2012-10-30,42,40,36,28,25,22,73,58,45,29.73,29.57,29.50,10,9,8,29,24,39,0.04,8,Snow,337
2012-10-31,,,,,,,,,,29.74,29.65,29.58,,,,,,,0.00,,,-1